Time;durP1;ratioP1;P1;durP2;ratioP2;P2;SDS_P1;SDS_P2;PMS_P1;PMS_P2;Temp;Humidity;BMP_temperature;BMP_pressure;BME280_temperature;BME280_humidity;BME280_pressure;Samples;Min_cycle;Max_cycle;Signal;HPM_P1;HPM_P2
2022/03/22 00:00:18;;;;;;;0.43;0.43;;;;;;;6.12;36.16;100282.91;6249717;23;20023;-82
2022/03/22 00:02:48;;;;;;;0.93;0.60;;;;;;;6.05;36.89;100282.97;6244344;23;20000;-80
2022/03/22 00:05:15;;;;;;;0.32;0.32;;;;;;;6.01;36.89;100283.63;6217832;23;20085;-81
2022/03/22 00:08:04;;;;;;;0.30;0.30;;;;;;;6.01;37.03;100281.78;6218443;23;20104;-80
2022/03/22 00:10:37;;;;;;;0.00;0.00;;;;;;;6.01;37.42;100275.66;6247667;23;20008;-80
2022/03/22 00:13:22;;;;;;;0.63;0.63;;;;;;;5.94;37.47;100265.03;6251228;23;20430;-80
2022/03/22 00:15:50;;;;;;;0.20;0.20;;;;;;;5.89;37.48;100263.03;6218190;23;20046;-80
2022/03/22 00:21:26;;;;;;;0.00;0.00;;;;;;;5.87;37.93;100270.41;6271411;22;21044;-81
2022/03/22 00:23:56;;;;;;;;;;;;;;;5.85;37.57;100266.34;6306613;22;20046;-81
2022/03/22 00:26:24;;;;;;;0.00;0.00;;;;;;;5.81;38.02;100258.00;6285516;22;20332;-81
2022/03/22 00:28:50;;;;;;;0.00;0.00;;;;;;;5.79;37.90;100257.38;6278308;22;20356;-80
2022/03/22 00:31:16;;;;;;;0.13;0.13;;;;;;;5.76;38.14;100249.84;6291761;22;20000;-80
2022/03/22 00:33:43;;;;;;;0.00;0.00;;;;;;;5.78;37.82;100255.75;6279029;22;20083;-80
2022/03/22 00:36:10;;;;;;;0.08;0.08;;;;;;;5.75;38.06;100251.69;6252214;22;20003;-80
2022/03/22 00:38:36;;;;;;;2.03;1.85;;;;;;;5.75;38.25;100250.88;6282273;22;19995;-79
2022/03/22 00:41:01;;;;;;;0.20;0.20;;;;;;;5.72;38.25;100259.25;6278684;22;20449;-79
2022/03/22 00:46:25;;;;;;;3.10;1.55;;;;;;;5.76;38.39;100257.78;6268665;22;20029;-81
2022/03/22 00:48:53;;;;;;;0.00;0.00;;;;;;;5.76;38.44;100249.84;6278214;22;20015;-80
2022/03/22 00:51:23;;;;;;;0.80;0.80;;;;;;;5.80;38.04;100235.13;6278553;22;20056;-80
2022/03/22 00:54:04;;;;;;;2.38;1.98;;;;;;;5.83;38.07;100241.84;6281469;22;20082;-80
2022/03/22 00:56:31;;;;;;;0.00;0.00;;;;;;;5.81;38.20;100244.72;6252646;22;20007;-78
2022/03/22 01:05:13;;;;;;;0.05;0.05;;;;;;;5.78;38.73;100245.13;6328821;22;20029;-77
2022/03/22 01:07:41;;;;;;;0.00;0.00;;;;;;;5.74;38.63;100231.47;6280721;22;20003;-78
2022/03/22 01:10:08;;;;;;;0.87;0.87;;;;;;;5.77;38.54;100236.38;6278270;22;20448;-79
2022/03/22 01:12:37;;;;;;;0.00;0.00;;;;;;;5.73;38.46;100226.38;6278388;22;19999;-79
2022/03/22 01:15:10;;;;;;;0.00;0.00;;;;;;;5.72;38.37;100220.25;6278385;22;20003;-79
2022/03/22 01:17:39;;;;;;;0.30;0.30;;;;;;;5.75;38.14;100219.84;6278436;22;20090;-80
2022/03/22 01:20:24;;;;;;;0.00;0.00;;;;;;;5.74;37.84;100209.44;6279130;22;20074;-80
2022/03/22 01:22:56;;;;;;;0.00;0.00;;;;;;;5.71;38.05;100205.38;6280358;22;20027;-82
2022/03/22 01:28:43;;;;;;;0.00;0.00;;;;;;;5.82;37.50;100205.69;6307326;22;20463;-77
2022/03/22 01:31:10;;;;;;;0.40;0.40;;;;;;;5.83;37.03;100210.78;6277879;22;19999;-80
2022/03/22 01:33:35;;;;;;;0.10;0.10;;;;;;;5.84;37.25;100203.66;6280557;22;20386;-81
2022/03/22 01:36:01;;;;;;;0.00;0.00;;;;;;;5.86;37.01;100204.22;6279867;22;20087;-80
2022/03/22 01:38:26;;;;;;;0.30;0.20;;;;;;;5.90;36.98;100202.78;6278332;22;20024;-80
2022/03/22 01:40:52;;;;;;;0.20;0.20;;;;;;;5.92;37.24;100190.91;6278144;22;20132;-80
2022/03/22 01:43:18;;;;;;;0.00;0.00;;;;;;;5.97;36.28;100190.28;6305371;22;20000;-80
2022/03/22 01:45:48;;;;;;;0.00;0.00;;;;;;;6.00;36.29;100189.03;6279483;22;20006;-81
2022/03/22 01:48:14;;;;;;;0.00;0.00;;;;;;;6.02;36.26;100190.44;6278889;22;20007;-80
2022/03/22 01:50:41;;;;;;;0.00;0.00;;;;;;;6.04;35.90;100185.75;6305336;22;20003;-80
2022/03/22 01:53:10;;;;;;;0.10;0.10;;;;;;;6.08;35.79;100178.97;6278193;22;20011;-81
2022/03/22 01:55:36;;;;;;;0.00;0.00;;;;;;;6.14;35.85;100190.56;6278529;22;20003;-81
2022/03/22 01:58:48;;;;;;;0.00;0.00;;;;;;;6.20;35.73;100188.84;6280129;22;20498;-82
2022/03/22 02:07:01;;;;;;;0.57;0.57;;;;;;;6.33;34.83;100185.28;6317820;22;20030;-82
2022/03/22 02:14:04;;;;;;;0.00;0.00;;;;;;;6.45;34.50;100178.19;6280930;22;20070;-83
2022/03/22 02:16:31;;;;;;;0.30;0.30;;;;;;;6.49;34.24;100176.72;6251334;22;20483;-79
2022/03/22 02:18:57;;;;;;;0.10;0.10;;;;;;;6.52;34.36;100176.28;6247526;22;20000;-79
2022/03/22 02:21:46;;;;;;;0.10;0.10;;;;;;;6.55;33.98;100173.19;6247863;22;20604;-79
2022/03/22 02:30:38;;;;;;;0.10;0.10;;;;;;;6.72;33.41;100175.25;6307878;22;20038;-78
2022/03/22 02:33:04;;;;;;;0.05;0.05;;;;;;;6.68;33.21;100153.63;6278026;22;20007;-77
2022/03/22 02:35:30;;;;;;;0.00;0.00;;;;;;;6.71;33.03;100157.66;6305403;22;20002;-78
2022/03/22 02:37:57;;;;;;;0.00;0.00;;;;;;;6.76;33.29;100154.34;6277944;22;20003;-79
2022/03/22 02:40:24;;;;;;;0.00;0.00;;;;;;;6.77;33.32;100146.13;6277951;22;20053;-80
2022/03/22 02:42:53;;;;;;;0.00;0.00;;;;;;;6.84;32.69;100151.38;6278544;22;20090;-79
2022/03/22 02:45:23;;;;;;;0.00;0.00;;;;;;;6.82;32.89;100150.78;6278495;22;20518;-79
2022/03/22 02:47:50;;;;;;;0.00;0.00;;;;;;;6.85;33.38;100148.50;6250115;22;20010;-79
2022/03/22 02:50:16;;;;;;;0.20;0.20;;;;;;;6.87;33.46;100149.09;6252926;22;20014;-80
2022/03/22 02:53:07;;;;;;;0.40;0.40;;;;;;;6.88;33.40;100149.91;6288595;22;19995;-81
2022/03/22 03:05:44;;;;;;;0.00;0.00;;;;;;;6.86;32.76;100128.03;6325149;22;20068;-80
2022/03/22 03:08:59;;;;;;;0.15;0.15;;;;;;;6.86;33.48;100130.69;6288545;22;20012;-81
2022/03/22 03:12:06;;;;;;;0.00;0.00;;;;;;;6.82;33.77;100121.53;6271266;22;20366;-82
2022/03/22 03:14:41;;;;;;;0.00;0.00;;;;;;;6.81;33.42;100122.56;6253512;22;19992;-79
2022/03/22 03:17:12;;;;;;;0.00;0.00;;;;;;;6.79;33.62;100122.00;6247278;22;20532;-79
2022/03/22 03:19:37;;;;;;;0.10;0.10;;;;;;;6.74;34.46;100112.03;6247396;22;19998;-80
2022/03/22 03:22:04;;;;;;;0.10;0.10;;;;;;;6.75;34.24;100119.00;6248397;22;20004;-79
2022/03/22 03:24:31;;;;;;;0.10;0.10;;;;;;;6.68;33.94;100116.41;6252371;22;20018;-80
2022/03/22 03:26:59;;;;;;;0.38;0.38;;;;;;;6.64;34.52;100109.91;6249349;22;20011;-80
2022/03/22 03:29:34;;;;;;;0.40;0.40;;;;;;;6.63;34.49;100116.25;6251124;22;20576;-81
2022/03/22 03:32:00;;;;;;;0.98;0.98;;;;;;;6.62;34.57;100105.84;6246863;22;20026;-78
2022/03/22 03:34:25;;;;;;;0.10;0.10;;;;;;;6.61;34.22;100104.22;6248695;22;20000;-79
2022/03/22 03:36:51;;;;;;;0.75;0.75;;;;;;;6.57;34.49;100103.88;6248821;22;19999;-78
2022/03/22 03:39:17;;;;;;;0.25;0.25;;;;;;;6.57;34.15;100104.66;6248643;22;20042;-79
2022/03/22 03:41:56;;;;;;;0.10;0.10;;;;;;;6.60;34.22;100102.59;6249241;22;20354;-78
2022/03/22 03:47:19;;;;;;;0.00;0.00;;;;;;;6.63;34.13;100110.94;6275921;22;20146;-78
2022/03/22 03:49:46;;;;;;;0.10;0.10;;;;;;;6.63;33.92;100102.97;6249141;22;20008;-79
2022/03/22 03:52:18;;;;;;;0.32;0.32;;;;;;;6.62;34.13;100089.91;6249148;22;20007;-78
2022/03/22 03:54:45;;;;;;;0.00;0.00;;;;;;;6.62;33.95;100098.69;6248825;22;20010;-78
2022/03/22 03:57:11;;;;;;;0.80;0.80;;;;;;;6.59;34.57;100095.66;6248396;22;20035;-78
2022/03/22 03:59:38;;;;;;;0.00;0.00;;;;;;;6.56;34.99;100096.91;6250153;22;20023;-79
2022/03/22 04:02:06;;;;;;;0.05;0.05;;;;;;;6.54;34.67;100105.13;6249531;22;20004;-78
2022/03/22 04:05:15;;;;;;;0.00;0.00;;;;;;;6.54;34.85;100102.47;6255544;22;20004;-82
2022/03/22 04:08:04;;;;;;;0.00;0.00;;;;;;;6.56;35.17;100107.56;6278176;22;20360;-80
2022/03/22 04:10:50;;;;;;;0.10;0.10;;;;;;;6.54;35.35;100098.97;6250949;22;20324;-82
2022/03/22 04:13:16;;;;;;;0.57;0.57;;;;;;;6.51;35.13;100104.75;6248715;22;20000;-80
2022/03/22 04:16:05;;;;;;;0.00;0.00;;;;;;;6.50;35.29;100103.13;6251337;22;20000;-82
2022/03/22 04:18:31;;;;;;;0.88;0.88;;;;;;;6.48;35.05;100099.88;6247932;22;20000;-78
2022/03/22 04:20:56;;;;;;;0.00;0.00;;;;;;;6.49;34.81;100106.81;6276626;22;20079;-78
2022/03/22 04:23:22;;;;;;;0.63;0.63;;;;;;;6.40;36.97;100124.91;6248763;22;20065;-79
2022/03/22 04:25:47;;;;;;;0.47;0.47;;;;;;;6.25;38.26;100118.13;6275114;22;20000;-80
2022/03/22 04:33:40;;;;;;;0.10;0.10;;;;;;;6.13;37.53;100106.59;6274862;22;20065;-79
2022/03/22 04:36:06;;;;;;;0.10;0.10;;;;;;;6.18;37.40;100108.59;6248655;22;20008;-79
2022/03/22 04:38:33;;;;;;;5.78;1.15;;;;;;;6.27;37.00;100114.44;6247732;22;20015;-79
2022/03/22 04:40:58;;;;;;;0.60;0.52;;;;;;;6.39;36.57;100107.34;6248009;22;20061;-79
2022/03/22 04:43:24;;;;;;;2.30;2.10;;;;;;;6.37;37.08;100096.94;6247840;22;20004;-79
2022/03/22 04:45:50;;;;;;;0.22;0.22;;;;;;;6.38;37.18;100095.09;6248449;22;20004;-79
2022/03/22 04:48:16;;;;;;;0.47;0.47;;;;;;;6.52;37.11;100106.38;6248044;22;20007;-79
2022/03/22 04:50:41;;;;;;;0.30;0.30;;;;;;;6.55;36.96;100105.94;6248396;22;20008;-79
2022/03/22 04:56:48;;;;;;;1.52;1.40;;;;;;;6.57;36.80;100099.34;6275775;22;21121;-82
2022/03/22 04:59:15;;;;;;;0.00;0.00;;;;;;;6.61;36.73;100090.94;6148023;23;20017;-78
2022/03/22 05:01:45;;;;;;;0.40;0.40;;;;;;;6.51;36.91;100094.94;6155369;22;20014;-80
2022/03/22 05:04:11;;;;;;;0.10;0.10;;;;;;;6.66;37.00;100091.06;6149211;22;20002;-80
2022/03/22 05:06:38;;;;;;;0.03;0.03;;;;;;;6.71;36.72;100088.53;6149004;22;20006;-80
2022/03/22 05:11:40;;;;;;;0.68;0.68;;;;;;;6.74;37.17;100080.13;6310103;22;20392;-79
2022/03/22 05:14:06;;;;;;;0.10;0.10;;;;;;;6.81;36.60;100094.16;6304281;22;20056;-77
2022/03/22 05:16:32;;;;;;;0.00;0.00;;;;;;;6.93;36.96;100085.41;6305526;22;20017;-77
2022/03/22 05:18:58;;;;;;;0.00;0.00;;;;;;;7.02;36.63;100084.84;6278193;22;20352;-78
2022/03/22 05:21:25;;;;;;;0.73;0.73;;;;;;;7.15;36.59;100089.19;6278129;22;20023;-78
2022/03/22 05:23:58;;;;;;;0.00;0.00;;;;;;;7.27;36.65;100091.06;6282523;22;20007;-81
2022/03/22 05:26:40;;;;;;;0.00;0.00;;;;;;;7.37;35.88;100088.63;6258007;22;20003;-81
2022/03/22 05:29:42;;;;;;;0.05;0.05;;;;;;;7.46;35.92;100089.94;6324921;22;20038;-83
2022/03/22 06:07:20;;;;;;;0.77;0.77;;;;;;;7.78;34.93;100062.19;6316580;22;20019;-86
2022/03/22 06:14:16;;;;;;;0.57;0.57;;;;;;;8.31;34.83;100081.69;6330722;22;20150;-87
2022/03/22 06:17:11;;;;;;;0.30;0.30;;;;;;;8.52;34.27;100080.28;6234148;23;20004;-87
2022/03/22 06:30:40;;;;;;;0.10;0.10;;;;;;;8.89;33.58;100073.75;6139097;23;20020;-87
2022/03/22 06:36:14;;;;;;;0.00;0.00;;;;;;;8.88;33.11;100085.47;6052886;23;20039;-88
2022/03/22 06:39:42;;;;;;;13.05;1.48;;;;;;;8.79;33.27;100077.84;6029090;23;20427;-88
2022/03/22 06:46:18;;;;;;;0.40;0.40;;;;;;;8.85;33.81;100094.78;5970165;24;20031;-88
2022/03/22 07:43:09;;;;;;;0.10;0.10;;;;;;;10.54;32.39;100052.13;6223111;22;20360;-87
2022/03/22 07:45:37;;;;;;;1.20;1.20;;;;;;;10.68;32.12;100047.19;6272916;22;20000;-89
2022/03/22 07:48:05;;;;;;;0.47;0.47;;;;;;;10.83;32.50;100055.38;6246029;22;20060;-89
2022/03/22 07:53:15;;;;;;;0.80;0.68;;;;;;;10.62;32.58;100053.53;6250194;22;20479;-88
2022/03/22 07:55:45;;;;;;;0.00;0.00;;;;;;;10.62;32.64;100045.50;6246330;22;19999;-88
2022/03/22 07:58:11;;;;;;;0.03;0.03;;;;;;;10.63;32.61;100044.47;6246091;22;20004;-88
2022/03/22 08:00:41;;;;;;;0.57;0.57;;;;;;;10.67;33.21;100038.34;6271695;22;20326;-87
2022/03/22 08:03:10;;;;;;;0.10;0.10;;;;;;;11.16;32.38;100034.78;6246405;22;20078;-87
2022/03/22 08:05:37;;;;;;;0.77;0.75;;;;;;;11.24;32.31;100030.81;6246196;22;20065;-87
2022/03/22 08:08:06;;;;;;;2.08;1.85;;;;;;;11.24;32.74;100036.19;6247601;22;20008;-88
2022/03/22 08:10:32;;;;;;;0.63;0.63;;;;;;;11.33;33.23;100025.81;6222504;22;20758;-87
2022/03/22 08:13:02;;;;;;;0.00;0.00;;;;;;;11.46;32.68;100019.19;6247702;22;20003;-87
2022/03/22 08:15:28;;;;;;;0.25;0.25;;;;;;;11.52;32.79;100021.66;6247605;22;20038;-87
2022/03/22 08:17:53;;;;;;;0.40;0.40;;;;;;;11.60;32.60;100008.84;6248127;22;20376;-87
2022/03/22 08:20:19;;;;;;;0.85;0.85;;;;;;;11.68;33.18;100006.50;6273413;22;20086;-88
2022/03/22 08:23:04;;;;;;;0.17;0.17;;;;;;;11.73;33.72;100010.25;6247812;22;20061;-88
2022/03/22 08:25:39;;;;;;;0.70;0.70;;;;;;;11.82;34.00;100011.38;6247576;22;20011;-89
2022/03/22 08:28:07;;;;;;;0.98;0.98;;;;;;;11.89;34.29;100003.91;6247789;22;20007;-88
2022/03/22 08:30:34;;;;;;;0.63;0.63;;;;;;;12.01;35.07;99990.31;6247348;22;20445;-90
2022/03/22 08:33:10;;;;;;;0.15;0.15;;;;;;;12.07;35.00;99991.97;6248239;22;20010;-89
2022/03/22 08:35:41;;;;;;;0.20;0.20;;;;;;;12.14;35.05;99971.06;6247918;22;20065;-89
2022/03/22 08:38:07;;;;;;;0.40;0.40;;;;;;;12.17;34.94;99972.44;6223666;22;20012;-88
2022/03/22 08:40:33;;;;;;;0.20;0.20;;;;;;;12.20;34.81;99966.53;6248071;22;20079;-92
2022/03/22 08:42:59;;;;;;;0.38;0.38;;;;;;;12.30;35.17;99966.56;6247654;22;20587;-88
2022/03/22 08:45:26;;;;;;;0.20;0.20;;;;;;;12.40;36.02;99959.59;6247914;22;19999;-89
2022/03/22 08:47:54;;;;;;;0.25;0.25;;;;;;;12.29;35.22;99969.50;6248882;22;20011;-88
2022/03/22 08:50:22;;;;;;;0.13;0.13;;;;;;;11.91;35.91;99936.63;6247575;22;20000;-91
2022/03/22 08:52:49;;;;;;;2.45;0.60;;;;;;;11.88;36.70;99961.28;6247890;22;20007;-88
2022/03/22 08:55:17;;;;;;;0.63;0.63;;;;;;;11.80;36.74;99963.41;6247129;22;19999;-88
2022/03/22 08:57:44;;;;;;;0.25;0.25;;;;;;;11.73;37.09;99965.53;6247550;22;20004;-90
2022/03/22 09:00:11;;;;;;;1.48;1.38;;;;;;;11.66;36.85;99948.88;6247488;22;19999;-89
2022/03/22 09:02:42;;;;;;;0.88;0.88;;;;;;;11.48;37.01;99952.78;6247373;22;19995;-91
2022/03/22 09:08:06;;;;;;;0.10;0.10;;;;;;;11.40;37.82;99934.53;6274416;22;20065;-88
2022/03/22 09:10:34;;;;;;;1.20;1.17;;;;;;;11.52;37.23;99938.63;6247183;22;20088;-91
2022/03/22 09:13:01;;;;;;;0.00;0.00;;;;;;;11.39;36.88;99920.34;6197367;22;20015;-91
2022/03/22 09:15:41;;;;;;;0.50;0.50;;;;;;;11.16;38.35;99942.97;6274530;22;20046;-89
2022/03/22 09:20:52;;;;;;;0.38;0.38;;;;;;;11.11;38.99;99914.28;6251434;22;20015;-88
2022/03/22 09:23:18;;;;;;;0.93;0.93;;;;;;;11.18;38.19;99940.81;6246938;22;20004;-88
2022/03/22 09:25:45;;;;;;;0.52;0.30;;;;;;;11.09;38.32;99916.41;6247160;22;20004;-88
2022/03/22 09:28:18;;;;;;;0.30;0.30;;;;;;;11.03;38.94;99949.56;6221951;22;20110;-90
2022/03/22 09:30:48;;;;;;;0.30;0.30;;;;;;;11.01;38.96;99927.59;6247089;22;20073;-91
2022/03/22 09:33:14;;;;;;;1.05;1.05;;;;;;;11.02;39.93;99929.19;6246981;22;19996;-89
2022/03/22 09:35:40;;;;;;;0.10;0.10;;;;;;;11.11;39.07;99934.88;6247487;22;20006;-87
2022/03/22 09:38:05;;;;;;;0.25;0.25;;;;;;;11.43;39.33;99940.16;6246943;22;20004;-89
2022/03/22 09:40:31;;;;;;;0.28;0.28;;;;;;;11.65;38.22;99950.72;6246902;22;20003;-87
2022/03/22 09:42:57;;;;;;;0.28;0.28;;;;;;;11.69;37.96;99929.59;6246989;22;19999;-87
2022/03/22 09:45:25;;;;;;;0.20;0.20;;;;;;;11.68;38.10;99915.38;6247087;22;20000;-87
2022/03/22 09:47:51;;;;;;;0.50;0.50;;;;;;;11.35;38.45;99903.97;6247318;22;20011;-90
2022/03/22 09:50:17;;;;;;;0.30;0.30;;;;;;;11.43;38.25;99909.91;6246438;22;20073;-89
2022/03/22 09:52:43;;;;;;;0.57;0.57;;;;;;;11.60;38.26;99909.72;6246738;22;20004;-87
2022/03/22 09:55:11;;;;;;;0.20;0.20;;;;;;;11.64;37.77;99858.00;6246993;22;20000;-90
2022/03/22 09:57:37;;;;;;;0.00;0.00;;;;;;;11.77;37.39;99864.78;6246896;22;19999;-89
2022/03/22 10:00:04;;;;;;;0.10;0.10;;;;;;;11.80;36.68;99876.84;6247275;22;20014;-89
2022/03/22 10:02:32;;;;;;;0.15;0.15;;;;;;;11.86;37.85;99894.53;6246849;22;20096;-89
2022/03/22 10:04:59;;;;;;;0.20;0.20;;;;;;;11.89;36.62;99915.47;6246863;22;19999;-90
2022/03/22 10:07:27;;;;;;;0.35;0.35;;;;;;;12.01;37.53;99870.50;6246454;22;20023;-87
2022/03/22 10:09:52;;;;;;;;;;;;;;;11.94;36.69;99890.56;6247413;22;20008;-87
2022/03/22 10:12:30;;;;;;;0.77;0.77;;;;;;;11.92;36.61;99888.13;6247024;22;19994;-87
2022/03/22 10:15:15;;;;;;;0.10;0.10;;;;;;;11.92;36.39;99872.03;6246773;22;20004;-87
2022/03/22 10:17:43;;;;;;;0.05;0.05;;;;;;;11.96;35.90;99861.59;6246638;22;20226;-86
2022/03/22 10:20:09;;;;;;;0.57;0.57;;;;;;;12.04;36.75;99868.34;6246846;22;20003;-83
2022/03/22 10:22:36;;;;;;;0.57;0.57;;;;;;;12.07;36.48;99875.84;6246325;22;19999;-86
2022/03/22 10:25:06;;;;;;;0.10;0.10;;;;;;;12.19;35.92;99854.97;6247092;22;20003;-87
2022/03/22 10:27:32;;;;;;;1.75;1.65;;;;;;;12.15;35.28;99876.13;6246563;22;20007;-84
2022/03/22 10:30:03;;;;;;;1.38;1.08;;;;;;;12.36;36.20;99856.59;6246682;22;20050;-84
2022/03/22 10:32:41;;;;;;;0.30;0.30;;;;;;;12.46;35.04;99865.44;6246651;22;20022;-83
2022/03/22 10:35:33;;;;;;;8.40;2.42;;;;;;;12.48;35.22;99832.97;6247306;22;20035;-86
2022/03/22 10:38:02;;;;;;;1.35;1.30;;;;;;;12.65;35.74;99830.03;6246414;22;20602;-78
2022/03/22 10:40:30;;;;;;;;;;;;;;;12.65;33.65;99820.06;6246890;22;20008;-78
2022/03/22 10:42:59;;;;;;;0.70;0.70;;;;;;;12.60;34.51;99873.75;6246538;22;19986;-79
2022/03/22 10:45:27;;;;;;;0.25;0.25;;;;;;;12.70;34.66;99862.22;6244009;22;20039;-79
2022/03/22 10:47:52;;;;;;;;;;;;;;;12.79;34.69;99835.63;6247270;22;20018;-82
2022/03/22 10:50:18;;;;;;;0.00;0.00;;;;;;;12.90;34.51;99804.19;6246625;22;19911;-80
2022/03/22 10:52:48;;;;;;;1.20;1.17;;;;;;;12.94;32.98;99800.69;6246744;22;20041;-82
2022/03/22 10:55:19;;;;;;;0.10;0.10;;;;;;;12.90;32.95;99834.56;6246491;22;20004;-83
2022/03/22 10:57:51;;;;;;;3.83;1.13;;;;;;;12.86;33.33;99844.19;6246438;22;20060;-82
2022/03/22 11:00:17;;;;;;;1.52;1.42;;;;;;;12.70;33.32;99834.59;6246157;22;20094;-80
2022/03/22 11:02:48;;;;;;;0.43;0.43;;;;;;;12.68;33.47;99813.38;6246251;22;20018;-79
2022/03/22 11:05:14;;;;;;;3.30;2.00;;;;;;;12.78;34.33;99781.16;6246579;22;20091;-83
2022/03/22 11:07:40;;;;;;;0.10;0.10;;;;;;;12.64;34.21;99780.09;6245887;22;20008;-81
2022/03/22 11:10:06;;;;;;;0.75;0.75;;;;;;;12.60;34.06;99813.94;6246559;22;20007;-81
2022/03/22 11:12:33;;;;;;;1.17;0.98;;;;;;;12.68;34.25;99797.25;6246217;22;20011;-81
2022/03/22 11:15:00;;;;;;;0.15;0.15;;;;;;;12.75;33.89;99792.41;6245943;22;20004;-83
2022/03/22 11:17:28;;;;;;;0.43;0.43;;;;;;;12.73;33.55;99828.66;6246159;22;20333;-79
2022/03/22 11:19:59;;;;;;;0.20;0.20;;;;;;;12.72;34.27;99805.56;6245723;22;20011;-78
2022/03/22 11:22:25;;;;;;;0.60;0.60;;;;;;;12.76;34.59;99769.88;6245784;22;20015;-81
2022/03/22 11:24:50;;;;;;;0.75;0.75;;;;;;;12.90;34.22;99791.59;6246567;22;20003;-82
2022/03/22 11:27:16;;;;;;;4.90;2.05;;;;;;;13.00;34.65;99763.91;6271495;22;20018;-79
2022/03/22 11:29:42;;;;;;;0.52;0.52;;;;;;;12.96;33.88;99750.22;6271538;22;20133;-81
2022/03/22 11:34:55;;;;;;;0.98;0.90;;;;;;;12.89;33.83;99781.94;6273351;22;20085;-81
2022/03/22 11:37:32;;;;;;;0.10;0.10;;;;;;;12.96;34.15;99800.41;6246215;22;20019;-80
2022/03/22 11:42:53;;;;;;;0.65;0.65;;;;;;;12.84;33.83;99756.97;6274175;22;20015;-80
2022/03/22 11:45:19;;;;;;;0.93;0.93;;;;;;;12.71;33.90;99796.72;6248434;22;20073;-80
2022/03/22 11:47:49;;;;;;;0.47;0.47;;;;;;;12.68;33.42;99778.47;6248174;22;20015;-80
2022/03/22 11:50:20;;;;;;;0.13;0.13;;;;;;;12.74;34.63;99760.50;6248395;22;20004;-84
2022/03/22 11:52:48;;;;;;;0.75;0.52;;;;;;;12.68;34.83;99743.59;6247984;22;20027;-80
2022/03/22 11:55:22;;;;;;;0.30;0.30;;;;;;;12.73;34.60;99780.34;6248440;22;20069;-79
2022/03/22 11:58:05;;;;;;;0.30;0.30;;;;;;;12.66;34.69;99732.34;6248403;22;20007;-78
2022/03/22 12:00:43;;;;;;;0.55;0.55;;;;;;;12.75;34.93;99756.75;6248068;22;20480;-83
2022/03/22 12:03:10;;;;;;;0.55;0.55;;;;;;;12.76;34.43;99740.34;6248356;22;20469;-80
2022/03/22 12:05:36;;;;;;;0.10;0.10;;;;;;;12.84;35.01;99709.47;6247872;22;20004;-82
2022/03/22 12:08:10;;;;;;;0.22;0.22;;;;;;;12.88;34.41;99702.47;6248230;22;20010;-80
2022/03/22 12:10:36;;;;;;;0.55;0.55;;;;;;;12.91;34.43;99726.06;6247798;22;20015;-84
2022/03/22 12:13:02;;;;;;;0.03;0.03;;;;;;;12.98;34.04;99707.78;6248255;22;20353;-83
2022/03/22 12:15:27;;;;;;;0.15;0.15;;;;;;;13.07;34.41;99708.03;6247756;22;20000;-83
2022/03/22 12:17:53;;;;;;;0.20;0.20;;;;;;;13.10;34.86;99710.16;6248174;22;20346;-82
2022/03/22 12:20:22;;;;;;;2.70;1.45;;;;;;;13.23;34.64;99683.75;6248072;22;20004;-82
2022/03/22 12:22:50;;;;;;;0.30;0.30;;;;;;;13.29;34.14;99704.97;6247700;22;20082;-83
2022/03/22 12:25:18;;;;;;;1.15;1.15;;;;;;;13.31;34.05;99680.50;6247910;22;20046;-82
2022/03/22 12:28:00;;;;;;;0.05;0.05;;;;;;;13.32;33.85;99684.78;6247833;22;20008;-81
2022/03/22 12:30:31;;;;;;;0.08;0.08;;;;;;;13.28;33.89;99667.59;6247542;22;20015;-80
2022/03/22 12:33:10;;;;;;;5.47;4.15;;;;;;;13.28;33.56;99689.09;6248066;22;20003;-81
2022/03/22 12:35:36;;;;;;;0.65;0.65;;;;;;;13.32;33.53;99652.56;6247526;22;20010;-81
2022/03/22 12:38:03;;;;;;;0.10;0.10;;;;;;;13.33;34.70;99666.78;6247876;22;20008;-80
2022/03/22 12:40:28;;;;;;;1.00;0.95;;;;;;;13.28;34.21;99630.00;6247584;22;20492;-82
2022/03/22 12:42:55;;;;;;;0.28;0.28;;;;;;;13.26;34.33;99632.19;6247930;22;20034;-84
2022/03/22 12:45:23;;;;;;;0.20;0.20;;;;;;;13.23;34.24;99651.53;6248054;22;20451;-81
2022/03/22 12:47:50;;;;;;;0.08;0.08;;;;;;;13.22;33.97;99644.56;6247690;22;20004;-82
2022/03/22 12:50:18;;;;;;;0.30;0.30;;;;;;;13.20;33.69;99611.81;6247589;22;20011;-82
2022/03/22 12:52:44;;;;;;;24.02;1.15;;;;;;;13.21;33.52;99656.41;6247439;22;20007;-83
2022/03/22 12:55:11;;;;;;;0.30;0.30;;;;;;;13.27;33.62;99656.06;6247816;22;20011;-82
2022/03/22 12:57:44;;;;;;;0.05;0.05;;;;;;;13.28;33.94;99663.06;6247279;22;20008;-83
2022/03/22 13:00:10;;;;;;;0.40;0.40;;;;;;;13.34;33.27;99665.69;6247710;22;20039;-79
2022/03/22 13:02:37;;;;;;;1.23;0.65;;;;;;;13.38;33.07;99648.00;6247445;22;20007;-81
2022/03/22 13:05:03;;;;;;;0.20;0.20;;;;;;;13.35;30.37;99656.56;6247606;22;20003;-79
2022/03/22 13:07:28;;;;;;;0.05;0.05;;;;;;;13.36;30.25;99652.81;6247280;22;20053;-82
2022/03/22 13:12:42;;;;;;;0.00;0.00;;;;;;;13.42;29.45;99659.78;6274276;22;20068;-80
2022/03/22 13:15:13;;;;;;;1.55;1.55;;;;;;;13.47;29.00;99656.25;6247569;22;20014;-83
2022/03/22 13:17:42;;;;;;;0.10;0.10;;;;;;;13.41;29.61;99639.34;6247076;22;20012;-83
2022/03/22 13:20:15;;;;;;;0.85;0.85;;;;;;;13.51;29.26;99662.66;6247561;22;20035;-79
2022/03/22 13:23:06;;;;;;;0.10;0.10;;;;;;;13.46;29.67;99671.56;6246971;22;20014;-82
2022/03/22 13:25:39;;;;;;;0.55;0.55;;;;;;;13.51;29.80;99681.47;6247224;22;20014;-77
2022/03/22 13:28:10;;;;;;;1.02;1.00;;;;;;;13.46;29.44;99658.13;6247560;22;20472;-78
2022/03/22 13:30:38;;;;;;;0.15;0.15;;;;;;;13.50;29.79;99653.81;6247191;22;20007;-77
2022/03/22 13:33:18;;;;;;;1.20;1.17;;;;;;;13.47;29.70;99638.22;6247465;22;20012;-83
2022/03/22 13:35:58;;;;;;;0.03;0.03;;;;;;;13.44;29.34;99663.00;6247109;22;20445;-77
2022/03/22 13:38:26;;;;;;;0.25;0.25;;;;;;;13.70;29.61;99660.09;6274435;22;20030;-77
2022/03/22 13:40:54;;;;;;;0.10;0.10;;;;;;;13.48;29.56;99639.06;6247055;22;20321;-79
2022/03/22 13:43:20;;;;;;;0.60;0.60;;;;;;;13.48;29.48;99653.28;6247312;22;20007;-79
2022/03/22 13:45:54;;;;;;;0.93;0.85;;;;;;;13.52;29.43;99653.53;6247056;22;20338;-80
2022/03/22 13:48:21;;;;;;;0.68;0.68;;;;;;;13.48;29.59;99639.06;6247058;22;20008;-78
2022/03/22 13:50:49;;;;;;;0.15;0.15;;;;;;;13.51;29.36;99625.03;6246552;22;20246;-84
2022/03/22 13:53:16;;;;;;;0.55;0.55;;;;;;;13.48;29.33;99652.50;6247168;22;20084;-77
2022/03/22 13:55:46;;;;;;;0.20;0.20;;;;;;;13.33;29.27;99686.41;6273495;22;20057;-78
2022/03/22 13:58:15;;;;;;;2.00;1.85;;;;;;;13.32;29.88;99665.16;6246655;22;20398;-79
2022/03/22 14:00:43;;;;;;;2.13;1.90;;;;;;;13.36;30.08;99663.56;6246560;22;20463;-77
2022/03/22 14:03:13;;;;;;;1.60;1.50;;;;;;;13.40;29.99;99649.31;6273633;22;20015;-79
2022/03/22 14:05:40;;;;;;;0.13;0.13;;;;;;;13.48;30.07;99658.66;6246501;22;20226;-79
2022/03/22 14:08:06;;;;;;;1.48;1.15;;;;;;;13.50;29.92;99636.88;6246369;22;20026;-81
2022/03/22 14:10:31;;;;;;;0.00;0.00;;;;;;;13.45;29.88;99684.19;6246448;22;20086;-79
2022/03/22 14:12:58;;;;;;;0.10;0.10;;;;;;;13.46;29.93;99687.69;6247023;22;20031;-78
2022/03/22 14:15:24;;;;;;;0.43;0.43;;;;;;;13.51;30.27;99650.03;6273590;22;20000;-79
2022/03/22 14:17:51;;;;;;;0.75;0.75;;;;;;;13.45;30.36;99672.63;6246553;22;20408;-78
2022/03/22 14:20:20;;;;;;;0.20;0.20;;;;;;;13.42;29.61;99662.47;6246666;22;20031;-78
2022/03/22 14:22:48;;;;;;;0.90;0.52;;;;;;;13.40;29.87;99662.75;6246003;22;20424;-79
2022/03/22 14:25:15;;;;;;;12.82;1.88;;;;;;;13.42;29.43;99647.13;6246667;22;20004;-81
2022/03/22 14:27:41;;;;;;;0.85;0.85;;;;;;;13.43;29.87;99659.47;6246484;22;20015;-78
2022/03/22 14:30:14;;;;;;;2.42;1.73;;;;;;;13.34;29.60;99685.31;6246352;22;20099;-78
2022/03/22 14:32:45;;;;;;;0.63;0.63;;;;;;;13.31;29.45;99736.13;6246143;22;20345;-78
2022/03/22 14:37:57;;;;;;;1.25;1.20;;;;;;;13.20;29.94;99678.97;6273296;22;20018;-78
2022/03/22 14:40:23;;;;;;;2.20;1.50;;;;;;;13.21;30.75;99667.94;6273726;22;20003;-78
2022/03/22 14:42:50;;;;;;;0.00;0.00;;;;;;;13.26;30.77;99656.38;6273188;22;20035;-79
2022/03/22 14:45:16;;;;;;;0.38;0.38;;;;;;;13.22;31.27;99693.72;6272125;22;20015;-78
2022/03/22 14:47:42;;;;;;;0.30;0.30;;;;;;;13.11;31.08;99695.66;6245933;22;20011;-78
2022/03/22 14:50:08;;;;;;;0.30;0.30;;;;;;;13.04;30.92;99689.78;6246432;22;20011;-78
2022/03/22 14:55:21;;;;;;;0.00;0.00;;;;;;;12.95;31.59;99684.19;6273332;22;20091;-78
2022/03/22 15:00:30;;;;;;;31.08;1.30;;;;;;;12.70;31.89;99741.44;6273037;22;20411;-78